createdAt,value
2023-03-18T00:00:47.157Z,7.70
2023-03-18T00:03:19.448Z,7.00
2023-03-18T00:05:47.377Z,6.90
2023-03-18T00:08:16.744Z,6.70
2023-03-18T00:10:44.645Z,6.50
2023-03-18T00:13:13.396Z,7.60
2023-03-18T00:15:41.277Z,7.00
2023-03-18T00:18:09.270Z,6.90
2023-03-18T00:20:39.884Z,6.90
2023-03-18T00:23:08.725Z,7.50
2023-03-18T00:25:37.366Z,7.50
2023-03-18T00:28:06.637Z,6.90
2023-03-18T00:30:37.301Z,8.00
2023-03-18T00:33:05.436Z,6.60
2023-03-18T00:35:34.711Z,6.90
2023-03-18T00:38:05.026Z,6.80
2023-03-18T00:40:43.418Z,6.80
2023-03-18T00:43:13.178Z,6.70
2023-03-18T00:45:41.459Z,7.00
2023-03-18T00:48:09.361Z,7.20
2023-03-18T00:50:37.737Z,7.20
2023-03-18T00:53:05.500Z,7.00
2023-03-18T00:55:33.448Z,7.10
2023-03-18T00:58:01.854Z,7.00
2023-03-18T01:00:29.831Z,7.50
2023-03-18T01:02:57.898Z,7.60
2023-03-18T01:05:25.953Z,6.50
2023-03-18T01:07:53.647Z,6.60
2023-03-18T01:10:22.079Z,6.90
2023-03-18T01:12:50.354Z,6.70
2023-03-18T01:15:19.875Z,7.40
2023-03-18T01:17:48.252Z,7.00
2023-03-18T01:20:17.233Z,6.70
2023-03-18T01:22:45.791Z,7.20
2023-03-18T01:25:16.330Z,7.50
2023-03-18T01:27:44.020Z,6.70
2023-03-18T01:30:13.392Z,7.40
2023-03-18T01:32:43.778Z,6.80
2023-03-18T01:35:12.540Z,7.10
2023-03-18T01:37:40.398Z,6.80
2023-03-18T01:40:10.079Z,6.90
2023-03-18T01:42:38.170Z,6.70
2023-03-18T01:45:24.338Z,6.70
2023-03-18T01:47:52.390Z,6.80
2023-03-18T01:50:22.561Z,7.30
2023-03-18T01:52:54.723Z,7.30
2023-03-18T01:55:24.431Z,7.00
2023-03-18T01:57:52.844Z,7.00
2023-03-18T02:00:21.798Z,7.00
2023-03-18T02:02:51.699Z,7.00
2023-03-18T02:05:21.268Z,6.50
2023-03-18T02:07:49.805Z,6.80
2023-03-18T02:10:23.979Z,6.40
2023-03-18T02:12:58.330Z,6.90
2023-03-18T02:15:27.838Z,6.80
2023-03-18T02:18:00.832Z,6.30
2023-03-18T02:20:47.204Z,6.60
2023-03-18T02:23:24.204Z,6.60
2023-03-18T02:25:55.765Z,6.60
2023-03-18T02:28:25.763Z,6.70
2023-03-18T02:30:56.155Z,6.80
2023-03-18T02:33:26.041Z,6.30
2023-03-18T02:35:56.957Z,6.50
2023-03-18T02:38:24.832Z,6.10
2023-03-18T02:40:53.470Z,5.80
2023-03-18T02:43:25.951Z,6.50
2023-03-18T02:46:13.124Z,6.30
2023-03-18T02:48:43.377Z,6.80
2023-03-18T02:51:12.109Z,6.40
2023-03-18T02:53:41.074Z,6.90
2023-03-18T02:56:09.356Z,6.80
2023-03-18T02:58:37.396Z,6.50
2023-03-18T03:01:06.588Z,6.30
2023-03-18T03:03:35.337Z,6.20
2023-03-18T03:06:03.599Z,6.90
2023-03-18T03:08:31.547Z,5.40
2023-03-18T03:10:59.432Z,6.20
2023-03-18T03:13:28.037Z,5.90
2023-03-18T03:15:56.152Z,6.20
2023-03-18T03:18:24.505Z,6.00
2023-03-18T03:20:52.599Z,6.70
2023-03-18T03:23:20.498Z,6.30
2023-03-18T03:25:49.422Z,5.70
2023-03-18T03:28:17.728Z,5.60
2023-03-18T03:30:46.051Z,5.70
2023-03-18T03:33:14.522Z,6.00
2023-03-18T03:35:42.598Z,6.10
2023-03-18T03:38:10.672Z,5.70
2023-03-18T03:40:39.300Z,5.10
2023-03-18T03:43:07.188Z,6.00
2023-03-18T03:45:35.254Z,5.70
2023-03-18T03:48:03.438Z,5.90
2023-03-18T03:50:31.742Z,5.60
2023-03-18T03:53:00.100Z,5.40
2023-03-18T03:55:28.332Z,5.60
2023-03-18T03:57:56.657Z,5.70
2023-03-18T04:00:24.731Z,5.70
2023-03-18T04:02:53.124Z,6.10
2023-03-18T04:05:24.151Z,5.80
2023-03-18T04:07:53.041Z,5.60
2023-03-18T04:10:21.730Z,6.00
2023-03-18T04:12:49.743Z,5.50
2023-03-18T04:15:19.934Z,5.80
2023-03-18T04:17:48.677Z,5.30
2023-03-18T04:20:17.239Z,5.70
2023-03-18T04:22:45.759Z,5.70
2023-03-18T04:25:16.963Z,5.70
2023-03-18T04:27:44.977Z,5.60
2023-03-18T04:30:13.463Z,5.90
2023-03-18T04:32:41.458Z,5.70
2023-03-18T04:35:09.905Z,5.60
2023-03-18T04:37:38.479Z,5.50
2023-03-18T04:40:06.668Z,5.90
2023-03-18T04:42:34.887Z,5.00
2023-03-18T04:45:02.792Z,5.80
2023-03-18T04:47:32.628Z,5.30
2023-03-18T04:50:01.118Z,5.30
2023-03-18T04:52:29.264Z,5.60
2023-03-18T04:54:57.240Z,5.70
2023-03-18T04:57:26.224Z,5.60
2023-03-18T04:59:54.096Z,5.30
2023-03-18T05:02:22.362Z,5.70
2023-03-18T05:04:50.297Z,5.70
2023-03-18T05:07:18.529Z,4.90
2023-03-18T05:09:47.304Z,5.80
2023-03-18T05:12:16.242Z,5.40
2023-03-18T05:14:45.389Z,5.10
2023-03-18T05:17:17.854Z,5.60
2023-03-18T05:19:47.662Z,5.00
2023-03-18T05:22:17.716Z,5.10
2023-03-18T05:24:46.184Z,5.30
2023-03-18T05:27:15.121Z,4.90
2023-03-18T05:29:44.763Z,5.10
2023-03-18T05:32:12.926Z,4.70
2023-03-18T05:34:41.425Z,5.40
2023-03-18T05:37:10.566Z,4.80
2023-03-18T05:39:38.814Z,4.70
2023-03-18T05:42:07.269Z,4.90
2023-03-18T05:44:35.772Z,5.20
2023-03-18T05:47:04.343Z,4.90
2023-03-18T05:49:32.740Z,4.90
2023-03-18T05:52:01.595Z,3.80
2023-03-18T05:54:29.609Z,4.70
2023-03-18T05:56:58.471Z,4.30
2023-03-18T05:59:26.455Z,4.20
2023-03-18T06:01:54.743Z,4.60
2023-03-18T06:04:22.978Z,5.20
2023-03-18T06:06:51.533Z,4.40
2023-03-18T06:09:19.523Z,5.20
2023-03-18T06:11:47.970Z,4.50
2023-03-18T06:14:16.175Z,4.50
2023-03-18T06:16:44.383Z,4.90
2023-03-18T06:19:13.236Z,4.70
2023-03-18T06:21:41.109Z,4.40
2023-03-18T06:24:09.788Z,4.10
2023-03-18T06:26:37.866Z,4.50
2023-03-18T06:29:07.209Z,4.60
2023-03-18T06:31:35.655Z,4.30
2023-03-18T06:34:05.058Z,4.60
2023-03-18T06:36:33.645Z,4.70
2023-03-18T06:39:01.516Z,4.20
2023-03-18T06:41:31.519Z,4.40
2023-03-18T06:44:00.498Z,4.20
2023-03-18T06:46:29.586Z,4.50
2023-03-18T06:48:57.572Z,4.30
2023-03-18T06:51:25.742Z,4.80
2023-03-18T06:53:54.726Z,4.10
2023-03-18T06:56:25.317Z,4.10
2023-03-18T06:58:54.456Z,4.20
2023-03-18T07:01:22.475Z,4.40
2023-03-18T07:03:51.716Z,4.50
2023-03-18T07:06:19.743Z,4.70
2023-03-18T07:08:48.068Z,4.50
2023-03-18T07:11:16.961Z,4.40
2023-03-18T07:13:45.331Z,3.90
2023-03-18T07:16:13.324Z,4.30
2023-03-18T07:18:42.905Z,4.00
2023-03-18T07:21:11.896Z,4.30
2023-03-18T07:23:41.134Z,4.30
2023-03-18T07:26:09.822Z,4.70
2023-03-18T07:28:40.411Z,4.00
2023-03-18T07:31:09.230Z,4.40
2023-03-18T07:33:37.055Z,4.60
2023-03-18T07:36:05.372Z,4.30
2023-03-18T07:38:33.310Z,4.80
2023-03-18T07:41:01.686Z,4.30
2023-03-18T07:43:29.722Z,4.40
2023-03-18T07:45:58.864Z,4.10
2023-03-18T07:48:26.901Z,4.00
2023-03-18T07:50:54.988Z,4.30
2023-03-18T07:53:23.060Z,4.40
2023-03-18T07:55:51.323Z,3.90
2023-03-18T07:58:19.414Z,3.80
2023-03-18T08:00:47.430Z,3.30
2023-03-18T08:03:15.766Z,3.70
2023-03-18T08:05:44.654Z,4.10
2023-03-18T08:08:13.777Z,3.50
2023-03-18T08:10:42.443Z,3.70
2023-03-18T08:13:11.050Z,3.40
2023-03-18T08:15:39.614Z,3.80
2023-03-18T08:18:09.434Z,4.20
2023-03-18T08:20:38.600Z,3.70
2023-03-18T08:23:06.864Z,3.90
2023-03-18T08:25:35.435Z,3.60
2023-03-18T08:28:04.135Z,3.70
2023-03-18T08:30:36.343Z,3.60
2023-03-18T08:33:06.073Z,4.00
2023-03-18T08:35:34.565Z,3.50
2023-03-18T08:38:02.444Z,3.80
2023-03-18T08:40:30.811Z,3.80
2023-03-18T08:42:58.549Z,3.70
2023-03-18T08:45:28.748Z,4.10
2023-03-18T08:47:56.619Z,4.20
2023-03-18T08:50:28.593Z,4.10
2023-03-18T08:52:58.009Z,4.10
2023-03-18T08:55:35.143Z,3.90
2023-03-18T08:58:04.369Z,3.70
2023-03-18T09:00:33.286Z,4.30
2023-03-18T09:03:01.913Z,4.00
2023-03-18T09:05:33.700Z,4.00
2023-03-18T09:08:01.941Z,3.70
2023-03-18T09:10:30.365Z,4.50
2023-03-18T09:12:59.389Z,3.70
2023-03-18T09:15:27.678Z,4.00
2023-03-18T09:18:10.511Z,4.00
2023-03-18T09:20:40.438Z,4.10
2023-03-18T09:23:09.351Z,4.10
2023-03-18T09:25:37.320Z,4.20
2023-03-18T09:28:05.900Z,4.30
2023-03-18T09:30:34.302Z,3.90
2023-03-18T09:33:02.107Z,4.70
2023-03-18T09:35:30.078Z,3.80
2023-03-18T09:37:58.897Z,4.70
2023-03-18T09:40:38.615Z,4.00
2023-03-18T09:43:13.203Z,4.30
2023-03-18T09:45:55.868Z,4.10
2023-03-18T09:48:34.642Z,4.00
2023-03-18T09:51:09.568Z,4.40
2023-03-18T09:53:45.996Z,4.40
2023-03-18T09:56:24.065Z,4.40
2023-03-18T09:59:05.647Z,4.30
2023-03-18T10:01:36.279Z,4.30
2023-03-18T10:04:13.364Z,4.00
2023-03-18T10:06:43.285Z,4.50
2023-03-18T10:09:22.703Z,4.20
2023-03-18T10:11:52.596Z,4.20
2023-03-18T10:14:24.297Z,4.60
2023-03-18T10:17:15.090Z,4.40
2023-03-18T10:20:04.667Z,4.30
2023-03-18T10:22:38.481Z,4.40
2023-03-18T10:25:12.724Z,4.60
2023-03-18T10:27:59.219Z,4.10
2023-03-18T10:30:29.862Z,4.80
2023-03-18T10:33:17.776Z,4.40
2023-03-18T10:35:52.668Z,4.40
2023-03-18T10:38:25.674Z,4.50
2023-03-18T10:40:56.604Z,4.40
2023-03-18T10:43:29.723Z,5.20
2023-03-18T10:46:02.643Z,4.70
2023-03-18T10:48:30.576Z,4.60
2023-03-18T10:51:11.285Z,4.30
2023-03-18T10:53:45.570Z,4.50
2023-03-18T10:56:14.721Z,4.60
2023-03-18T10:58:43.305Z,4.80
2023-03-18T11:01:12.720Z,4.50
2023-03-18T11:03:51.712Z,4.60
2023-03-18T11:06:22.289Z,4.70
2023-03-18T11:08:50.312Z,4.50
2023-03-18T11:11:28.107Z,4.50
2023-03-18T11:13:57.328Z,4.80
2023-03-18T11:16:34.585Z,4.90
2023-03-18T11:19:09.258Z,4.50
2023-03-18T11:21:37.672Z,4.80
2023-03-18T11:24:10.667Z,4.00
2023-03-18T11:26:47.287Z,4.50
2023-03-18T11:29:21.674Z,4.70
2023-03-18T11:31:58.579Z,4.40
2023-03-18T11:34:27.619Z,4.50
2023-03-18T11:37:05.581Z,4.60
2023-03-18T11:39:39.296Z,4.30
2023-03-18T11:42:18.039Z,4.60
2023-03-18T11:44:46.866Z,4.30
2023-03-18T11:47:24.474Z,4.30
2023-03-18T11:49:52.385Z,4.80
2023-03-18T11:52:23.188Z,4.90
2023-03-18T11:55:04.361Z,4.30
2023-03-18T11:57:45.767Z,4.80
2023-03-18T12:00:29.239Z,5.10
2023-03-18T12:02:59.768Z,8.60
2023-03-18T12:05:30.689Z,19.70
2023-03-18T12:08:17.626Z,5.80
2023-03-18T12:10:56.430Z,4.70
2023-03-18T12:13:37.608Z,4.70
2023-03-18T12:16:05.495Z,4.70
2023-03-18T12:18:33.972Z,5.20
2023-03-18T12:21:25.297Z,4.50
2023-03-18T12:24:08.284Z,4.80
2023-03-18T12:26:36.352Z,4.60
2023-03-18T12:29:13.192Z,5.10
2023-03-18T12:31:52.386Z,4.90
2023-03-18T12:34:38.823Z,7.10
2023-03-18T12:37:15.674Z,5.70
2023-03-18T12:39:55.714Z,4.90
2023-03-18T12:42:29.409Z,7.50
2023-03-18T12:44:58.147Z,9.40
2023-03-18T12:47:29.882Z,6.70
2023-03-18T12:50:00.804Z,5.20
2023-03-18T12:52:28.501Z,5.70
2023-03-18T12:55:07.722Z,4.80
2023-03-18T12:57:42.092Z,4.90
2023-03-18T13:00:16.114Z,4.70
2023-03-18T13:02:57.592Z,5.00
2023-03-18T13:05:35.263Z,4.50
2023-03-18T13:08:18.324Z,4.60
2023-03-18T13:10:49.332Z,4.70
2023-03-18T13:13:17.123Z,4.40
2023-03-18T13:15:49.997Z,4.80
2023-03-18T13:18:27.320Z,5.00
2023-03-18T13:20:58.715Z,4.80
2023-03-18T13:23:26.695Z,4.80
2023-03-18T13:26:13.503Z,11.60
2023-03-18T13:28:42.745Z,6.10
2023-03-18T13:31:35.130Z,5.60
2023-03-18T13:34:19.131Z,5.20
2023-03-18T13:36:56.422Z,5.40
2023-03-18T13:39:43.025Z,5.50
2023-03-18T13:42:11.053Z,5.60
2023-03-18T13:44:45.151Z,5.50
2023-03-18T13:47:19.152Z,6.10
2023-03-18T13:49:48.607Z,5.40
2023-03-18T13:52:25.903Z,5.90
2023-03-18T13:54:58.735Z,5.20
2023-03-18T13:57:26.793Z,5.20
2023-03-18T14:00:27.192Z,4.70
2023-03-18T14:03:06.682Z,5.10
2023-03-18T14:05:37.339Z,6.10
2023-03-18T14:08:07.786Z,8.90
2023-03-18T14:10:36.739Z,9.30
2023-03-18T14:13:28.426Z,5.80
2023-03-18T14:15:59.004Z,7.10
2023-03-18T14:18:28.354Z,11.40
2023-03-18T14:21:02.261Z,7.60
2023-03-18T14:23:37.410Z,7.40
2023-03-18T14:26:22.091Z,6.70
2023-03-18T14:29:11.660Z,5.80
2023-03-18T14:31:40.146Z,5.30
2023-03-18T14:34:16.258Z,5.30
2023-03-18T14:39:19.075Z,5.40
2023-03-18T14:41:48.984Z,5.40
2023-03-18T14:44:17.378Z,5.80
2023-03-18T14:46:46.335Z,5.40
2023-03-18T14:49:32.604Z,5.80
2023-03-18T14:52:00.813Z,5.70
2023-03-18T14:54:30.576Z,5.60
2023-03-18T14:57:02.701Z,5.30
2023-03-18T14:59:30.939Z,5.90
2023-03-18T15:01:59.117Z,6.10
2023-03-18T15:04:27.411Z,6.30
2023-03-18T15:06:59.575Z,5.80
2023-03-18T15:09:28.658Z,6.50
2023-03-18T15:11:56.492Z,6.40
2023-03-18T15:14:26.463Z,6.10
2023-03-18T15:17:05.241Z,5.90
2023-03-18T15:19:35.414Z,5.80
2023-03-18T15:22:05.928Z,6.50
2023-03-18T15:24:34.567Z,6.30
2023-03-18T15:27:18.642Z,6.50
2023-03-18T15:29:53.745Z,6.40
2023-03-18T15:32:43.518Z,6.30
2023-03-18T15:35:14.334Z,5.70
2023-03-18T15:37:44.104Z,6.10
2023-03-18T15:40:38.949Z,5.50
2023-03-18T15:43:09.620Z,6.20
2023-03-18T15:45:45.589Z,11.50
2023-03-18T15:48:35.180Z,14.10
2023-03-18T15:51:05.145Z,10.70
2023-03-18T15:53:42.937Z,7.90
2023-03-18T15:56:14.244Z,6.30
2023-03-18T15:58:45.175Z,5.90
2023-03-18T16:01:18.019Z,5.60
2023-03-18T16:03:46.731Z,5.50
2023-03-18T16:06:15.291Z,5.00
2023-03-18T16:08:43.286Z,4.90
2023-03-18T16:11:13.114Z,4.90
2023-03-18T16:13:43.455Z,5.10
2023-03-18T16:16:16.324Z,5.10
2023-03-18T16:18:44.259Z,5.00
2023-03-18T16:21:15.413Z,4.90
2023-03-18T16:23:43.300Z,5.20
2023-03-18T16:26:16.077Z,5.00
2023-03-18T16:28:48.323Z,5.30
2023-03-18T16:31:16.369Z,6.10
2023-03-18T16:33:46.495Z,5.70
2023-03-18T16:36:25.178Z,5.60
2023-03-18T16:38:53.706Z,5.10
2023-03-18T16:41:21.601Z,5.00
2023-03-18T16:43:50.247Z,4.60
2023-03-18T16:46:18.657Z,4.40
2023-03-18T16:48:46.769Z,4.50
2023-03-18T16:51:15.326Z,4.50
2023-03-18T16:53:43.879Z,4.60
2023-03-18T16:56:21.212Z,4.20
2023-03-18T16:58:49.368Z,4.90
2023-03-18T17:01:19.494Z,4.30
2023-03-18T17:03:48.305Z,4.40
2023-03-18T17:06:18.074Z,4.90
2023-03-18T17:08:46.643Z,4.80
2023-03-18T17:11:18.372Z,5.10
2023-03-18T17:13:46.846Z,5.30
2023-03-18T17:16:18.203Z,4.70
2023-03-18T17:18:46.460Z,4.90
2023-03-18T17:21:14.285Z,6.10
2023-03-18T17:23:42.945Z,5.40
2023-03-18T17:26:25.833Z,6.40
2023-03-18T17:28:54.139Z,6.40
2023-03-18T17:31:22.483Z,7.30
2023-03-18T17:33:50.597Z,6.80
2023-03-18T17:36:18.462Z,7.00
2023-03-18T17:38:46.773Z,5.60
2023-03-18T17:41:19.079Z,5.60
2023-03-18T17:43:48.713Z,5.90
2023-03-18T17:46:17.858Z,5.60
2023-03-18T17:48:48.576Z,4.80
2023-03-18T17:51:19.295Z,9.10
2023-03-18T17:53:49.748Z,9.50
2023-03-18T17:56:19.900Z,10.00
2023-03-18T17:58:53.091Z,8.60
2023-03-18T18:01:28.087Z,7.20
2023-03-18T18:04:00.823Z,7.00
2023-03-18T18:06:29.796Z,6.40
2023-03-18T18:09:02.485Z,6.60
2023-03-18T18:11:37.980Z,7.00
2023-03-18T18:14:26.296Z,8.40
2023-03-18T18:16:56.108Z,10.00
2023-03-18T18:19:24.226Z,10.40
2023-03-18T18:21:52.633Z,11.10
2023-03-18T18:24:20.420Z,9.60
2023-03-18T18:26:48.620Z,9.20
2023-03-18T18:29:19.545Z,8.90
2023-03-18T18:31:48.053Z,7.90
2023-03-18T18:34:17.401Z,8.30
2023-03-18T18:36:45.825Z,8.00
2023-03-18T18:39:14.209Z,7.60
2023-03-18T18:41:42.893Z,7.50
2023-03-18T18:44:12.424Z,8.70
2023-03-18T18:46:42.568Z,9.30
2023-03-18T18:49:23.605Z,34.50
2023-03-18T18:51:55.933Z,29.50
2023-03-18T18:54:25.819Z,21.20
2023-03-18T18:56:53.867Z,16.60
2023-03-18T18:59:23.740Z,17.50
2023-03-18T19:01:53.420Z,29.20
2023-03-18T19:04:22.885Z,24.20
2023-03-18T19:06:52.809Z,32.10
2023-03-18T19:09:24.727Z,21.40
2023-03-18T19:11:53.601Z,12.90
2023-03-18T19:14:28.841Z,24.20
2023-03-18T19:16:58.963Z,12.30
2023-03-18T19:19:31.983Z,21.80
2023-03-18T19:22:00.558Z,83.10
2023-03-18T19:24:39.244Z,42.40
2023-03-18T19:27:16.833Z,19.20
2023-03-18T19:29:46.293Z,15.20
2023-03-18T19:32:19.161Z,14.90
2023-03-18T19:34:51.870Z,13.90
2023-03-18T19:37:29.490Z,15.60
2023-03-18T19:39:59.602Z,16.80
2023-03-18T19:42:28.079Z,16.80
2023-03-18T19:44:56.696Z,13.10
2023-03-18T19:47:29.855Z,10.70
2023-03-18T19:49:58.052Z,12.20
2023-03-18T19:52:27.830Z,10.30
2023-03-18T19:54:57.854Z,10.40
2023-03-18T19:57:30.061Z,11.30
2023-03-18T19:59:59.137Z,11.10
2023-03-18T20:02:31.021Z,11.30
2023-03-18T20:05:02.124Z,13.60
2023-03-18T20:07:31.595Z,25.50
2023-03-18T20:10:00.057Z,17.70
2023-03-18T20:12:36.512Z,13.20
2023-03-18T20:15:05.178Z,28.30
2023-03-18T20:17:40.371Z,12.70
2023-03-18T20:20:18.910Z,11.60
2023-03-18T20:22:51.991Z,14.10
2023-03-18T20:25:22.646Z,13.70
2023-03-18T20:27:53.637Z,13.50
2023-03-18T20:30:23.369Z,16.40
2023-03-18T20:32:54.201Z,15.20
2023-03-18T20:35:24.603Z,15.00
2023-03-18T20:37:53.812Z,11.70
2023-03-18T20:40:24.861Z,11.20
2023-03-18T20:42:53.598Z,11.70
2023-03-18T20:45:23.865Z,13.20
2023-03-18T20:47:51.750Z,14.60
2023-03-18T20:50:26.323Z,16.70
2023-03-18T20:52:54.721Z,17.30
2023-03-18T20:55:31.340Z,16.70
2023-03-18T21:00:30.319Z,14.10
2023-03-18T21:02:59.165Z,12.90
2023-03-18T21:05:29.295Z,12.00
2023-03-18T21:07:59.263Z,12.70
2023-03-18T21:10:28.257Z,12.50
2023-03-18T21:12:57.144Z,12.20
2023-03-18T21:15:27.151Z,13.10
2023-03-18T21:17:56.383Z,12.60
2023-03-18T21:20:29.245Z,13.00
2023-03-18T21:22:58.501Z,13.50
2023-03-18T21:25:28.063Z,12.50
2023-03-18T21:27:56.302Z,13.10
2023-03-18T21:30:24.366Z,13.80
2023-03-18T21:32:54.257Z,12.90
2023-03-18T21:35:26.834Z,13.00
2023-03-18T21:37:55.030Z,11.90
2023-03-18T21:40:24.620Z,11.70
2023-03-18T21:42:52.935Z,11.80
2023-03-18T21:45:21.826Z,11.90
2023-03-18T21:47:50.330Z,13.00
2023-03-18T21:50:26.493Z,14.80
2023-03-18T21:52:54.820Z,13.20
2023-03-18T21:55:23.052Z,13.80
2023-03-18T21:57:51.074Z,14.30
2023-03-18T22:00:20.239Z,16.50
2023-03-18T22:02:48.422Z,13.60
2023-03-18T22:05:21.916Z,13.70
2023-03-18T22:07:50.952Z,12.80
2023-03-18T22:10:23.978Z,12.70
2023-03-18T22:12:52.482Z,12.10
2023-03-18T22:15:23.706Z,13.10
2023-03-18T22:17:52.616Z,12.40
2023-03-18T22:20:23.255Z,12.20
2023-03-18T22:22:51.899Z,11.90
2023-03-18T22:25:32.952Z,12.70
2023-03-18T22:28:01.326Z,12.00
2023-03-18T22:30:30.986Z,10.90
2023-03-18T22:33:00.017Z,12.30
2023-03-18T22:35:29.065Z,11.50
2023-03-18T22:37:57.677Z,12.20
2023-03-18T22:40:30.047Z,12.00
2023-03-18T22:43:01.793Z,12.40
2023-03-18T22:45:31.140Z,13.80
2023-03-18T22:48:01.560Z,15.10
2023-03-18T22:50:33.616Z,14.10
2023-03-18T22:53:02.664Z,12.90
2023-03-18T22:55:35.772Z,12.40
2023-03-18T22:58:03.745Z,12.90
2023-03-18T23:00:38.903Z,12.40
2023-03-18T23:03:13.041Z,11.60
2023-03-18T23:05:41.582Z,11.50
2023-03-18T23:08:10.144Z,12.40
2023-03-18T23:10:38.085Z,11.80
2023-03-18T23:13:29.285Z,15.20
2023-03-18T23:15:58.445Z,14.00
2023-03-18T23:18:26.794Z,12.70
2023-03-18T23:20:55.328Z,13.10
2023-03-18T23:23:23.598Z,13.00
2023-03-18T23:25:52.509Z,13.30
2023-03-18T23:28:20.292Z,20.10
2023-03-18T23:30:49.520Z,16.60
2023-03-18T23:33:17.853Z,15.00
2023-03-18T23:35:47.532Z,14.90
2023-03-18T23:38:15.539Z,19.00
2023-03-18T23:40:43.284Z,17.50
2023-03-18T23:43:11.221Z,15.60
2023-03-18T23:45:39.656Z,14.10
2023-03-18T23:48:07.827Z,13.00
2023-03-18T23:50:35.735Z,12.50
2023-03-18T23:53:03.464Z,12.20
2023-03-18T23:55:34.808Z,12.10
2023-03-18T23:58:13.807Z,12.20
